sensor_id;sensor_type;location;lat;lon;timestamp;temperature;humidity
5675;DHT22;2860;54.284;10.158;2023-02-13T00:02:25;5.80;99.90
5675;DHT22;2860;54.284;10.158;2023-02-13T00:04:50;5.80;99.90
5675;DHT22;2860;54.284;10.158;2023-02-13T00:07:16;5.80;99.90
5675;DHT22;2860;54.284;10.158;2023-02-13T00:09:41;5.80;99.90
5675;DHT22;2860;54.284;10.158;2023-02-13T00:12:07;5.70;99.90
5675;DHT22;2860;54.284;10.158;2023-02-13T00:14:36;5.70;99.90
5675;DHT22;2860;54.284;10.158;2023-02-13T00:17:02;5.70;99.90
5675;DHT22;2860;54.284;10.158;2023-02-13T00:19:28;5.70;99.90
5675;DHT22;2860;54.284;10.158;2023-02-13T00:21:53;5.70;99.90
5675;DHT22;2860;54.284;10.158;2023-02-13T00:24:19;5.70;99.90
5675;DHT22;2860;54.284;10.158;2023-02-13T00:26:44;5.70;99.90
5675;DHT22;2860;54.284;10.158;2023-02-13T00:29:10;5.70;99.90
5675;DHT22;2860;54.284;10.158;2023-02-13T00:31:36;5.70;99.90
5675;DHT22;2860;54.284;10.158;2023-02-13T00:34:01;5.70;99.90
5675;DHT22;2860;54.284;10.158;2023-02-13T00:36:27;5.70;99.90
5675;DHT22;2860;54.284;10.158;2023-02-13T00:38:53;5.70;99.90
5675;DHT22;2860;54.284;10.158;2023-02-13T00:41:19;5.70;99.90
5675;DHT22;2860;54.284;10.158;2023-02-13T00:43:45;5.70;99.90
5675;DHT22;2860;54.284;10.158;2023-02-13T00:46:11;5.70;99.90
5675;DHT22;2860;54.284;10.158;2023-02-13T00:48:37;5.70;99.90
5675;DHT22;2860;54.284;10.158;2023-02-13T00:51:02;5.70;99.90
5675;DHT22;2860;54.284;10.158;2023-02-13T00:53:29;5.70;99.90
5675;DHT22;2860;54.284;10.158;2023-02-13T00:55:54;5.70;99.90
5675;DHT22;2860;54.284;10.158;2023-02-13T00:58:20;5.70;99.90
5675;DHT22;2860;54.284;10.158;2023-02-13T01:00:46;5.70;99.90
5675;DHT22;2860;54.284;10.158;2023-02-13T01:03:13;5.60;99.90
5675;DHT22;2860;54.284;10.158;2023-02-13T01:05:39;5.70;99.90
5675;DHT22;2860;54.284;10.158;2023-02-13T01:08:04;5.70;99.90
5675;DHT22;2860;54.284;10.158;2023-02-13T01:10:30;5.60;99.90
5675;DHT22;2860;54.284;10.158;2023-02-13T01:12:56;5.60;99.90
5675;DHT22;2860;54.284;10.158;2023-02-13T01:15:21;5.60;99.90
5675;DHT22;2860;54.284;10.158;2023-02-13T01:17:47;5.60;99.90
5675;DHT22;2860;54.284;10.158;2023-02-13T01:20:13;5.60;99.90
5675;DHT22;2860;54.284;10.158;2023-02-13T01:22:39;5.60;99.90
5675;DHT22;2860;54.284;10.158;2023-02-13T01:25:06;5.60;99.90
5675;DHT22;2860;54.284;10.158;2023-02-13T01:27:32;5.60;99.90
5675;DHT22;2860;54.284;10.158;2023-02-13T01:29:58;5.60;99.90
5675;DHT22;2860;54.284;10.158;2023-02-13T01:32:24;5.60;99.90
5675;DHT22;2860;54.284;10.158;2023-02-13T01:34:50;5.50;99.90
5675;DHT22;2860;54.284;10.158;2023-02-13T01:37:15;5.60;99.90
5675;DHT22;2860;54.284;10.158;2023-02-13T01:39:41;5.60;99.90
5675;DHT22;2860;54.284;10.158;2023-02-13T01:42:15;5.60;99.90
5675;DHT22;2860;54.284;10.158;2023-02-13T01:44:52;5.60;99.90
5675;DHT22;2860;54.284;10.158;2023-02-13T01:47:39;5.60;99.90
5675;DHT22;2860;54.284;10.158;2023-02-13T01:50:14;5.60;99.90
5675;DHT22;2860;54.284;10.158;2023-02-13T01:52:45;5.60;99.90
5675;DHT22;2860;54.284;10.158;2023-02-13T01:55:13;5.60;99.90
5675;DHT22;2860;54.284;10.158;2023-02-13T01:57:40;5.60;99.90
5675;DHT22;2860;54.284;10.158;2023-02-13T02:00:10;5.60;99.90
5675;DHT22;2860;54.284;10.158;2023-02-13T02:02:38;5.60;99.90
5675;DHT22;2860;54.284;10.158;2023-02-13T02:05:06;5.60;99.90
5675;DHT22;2860;54.284;10.158;2023-02-13T02:07:33;5.60;99.90
5675;DHT22;2860;54.284;10.158;2023-02-13T02:10:18;5.60;99.90
5675;DHT22;2860;54.284;10.158;2023-02-13T02:12:57;5.60;99.90
5675;DHT22;2860;54.284;10.158;2023-02-13T02:15:24;5.60;99.90
5675;DHT22;2860;54.284;10.158;2023-02-13T02:17:49;5.60;99.90
5675;DHT22;2860;54.284;10.158;2023-02-13T02:20:41;5.60;99.90
5675;DHT22;2860;54.284;10.158;2023-02-13T02:25:57;5.50;99.90
5675;DHT22;2860;54.284;10.158;2023-02-13T02:28:41;5.50;99.90
5675;DHT22;2860;54.284;10.158;2023-02-13T02:31:38;5.50;99.90
5675;DHT22;2860;54.284;10.158;2023-02-13T02:34:12;5.50;99.90
5675;DHT22;2860;54.284;10.158;2023-02-13T02:45:11;5.50;99.90
5675;DHT22;2860;54.284;10.158;2023-02-13T02:47:59;5.40;99.90
5675;DHT22;2860;54.284;10.158;2023-02-13T02:51:11;5.50;99.90
5675;DHT22;2860;54.284;10.158;2023-02-13T02:56:28;5.50;99.90
5675;DHT22;2860;54.284;10.158;2023-02-13T02:59:12;5.40;99.90
5675;DHT22;2860;54.284;10.158;2023-02-13T03:01:58;5.40;99.90
5675;DHT22;2860;54.284;10.158;2023-02-13T03:04:46;5.40;99.90
5675;DHT22;2860;54.284;10.158;2023-02-13T03:07:31;5.40;99.90
5675;DHT22;2860;54.284;10.158;2023-02-13T03:10:03;5.40;99.90
5675;DHT22;2860;54.284;10.158;2023-02-13T03:12:56;5.50;99.90
5675;DHT22;2860;54.284;10.158;2023-02-13T03:15:44;5.40;99.90
5675;DHT22;2860;54.284;10.158;2023-02-13T03:18:30;5.40;99.90
5675;DHT22;2860;54.284;10.158;2023-02-13T03:21:37;5.40;99.90
5675;DHT22;2860;54.284;10.158;2023-02-13T03:24:35;5.40;99.90
5675;DHT22;2860;54.284;10.158;2023-02-13T03:33:13;5.40;99.90
5675;DHT22;2860;54.284;10.158;2023-02-13T03:35:57;5.40;99.90
5675;DHT22;2860;54.284;10.158;2023-02-13T03:38:52;5.40;99.90
5675;DHT22;2860;54.284;10.158;2023-02-13T03:41:40;5.40;99.90
5675;DHT22;2860;54.284;10.158;2023-02-13T03:44:40;5.40;99.90
5675;DHT22;2860;54.284;10.158;2023-02-13T03:47:09;5.40;99.90
5675;DHT22;2860;54.284;10.158;2023-02-13T03:49:43;5.40;99.90
5675;DHT22;2860;54.284;10.158;2023-02-13T03:52:35;5.40;99.90
5675;DHT22;2860;54.284;10.158;2023-02-13T03:55:09;5.40;99.90
5675;DHT22;2860;54.284;10.158;2023-02-13T03:57:58;5.40;99.90
5675;DHT22;2860;54.284;10.158;2023-02-13T04:00:48;5.40;99.90
5675;DHT22;2860;54.284;10.158;2023-02-13T04:05:53;5.50;99.90
5675;DHT22;2860;54.284;10.158;2023-02-13T04:08:20;5.50;99.90
5675;DHT22;2860;54.284;10.158;2023-02-13T04:14:03;5.40;99.90
5675;DHT22;2860;54.284;10.158;2023-02-13T04:16:33;5.40;99.90
5675;DHT22;2860;54.284;10.158;2023-02-13T04:19:00;5.40;99.90
5675;DHT22;2860;54.284;10.158;2023-02-13T04:21:26;5.40;99.90
5675;DHT22;2860;54.284;10.158;2023-02-13T04:23:52;5.40;99.90
5675;DHT22;2860;54.284;10.158;2023-02-13T04:26:20;5.30;99.90
5675;DHT22;2860;54.284;10.158;2023-02-13T04:28:47;5.30;99.90
5675;DHT22;2860;54.284;10.158;2023-02-13T04:31:12;5.30;99.90
5675;DHT22;2860;54.284;10.158;2023-02-13T04:33:38;5.30;99.90
5675;DHT22;2860;54.284;10.158;2023-02-13T04:36:04;5.30;99.90
5675;DHT22;2860;54.284;10.158;2023-02-13T04:38:29;5.20;99.90
5675;DHT22;2860;54.284;10.158;2023-02-13T04:40:55;5.20;99.90
5675;DHT22;2860;54.284;10.158;2023-02-13T04:43:20;5.20;99.90
5675;DHT22;2860;54.284;10.158;2023-02-13T04:45:49;5.20;99.90
5675;DHT22;2860;54.284;10.158;2023-02-13T04:48:15;5.20;99.90
5675;DHT22;2860;54.284;10.158;2023-02-13T04:50:40;5.20;99.90
5675;DHT22;2860;54.284;10.158;2023-02-13T04:53:06;5.20;99.90
5675;DHT22;2860;54.284;10.158;2023-02-13T04:55:31;5.30;99.90
5675;DHT22;2860;54.284;10.158;2023-02-13T04:57:57;5.30;99.90
5675;DHT22;2860;54.284;10.158;2023-02-13T05:00:24;5.30;99.90
5675;DHT22;2860;54.284;10.158;2023-02-13T05:02:50;5.20;99.90
5675;DHT22;2860;54.284;10.158;2023-02-13T05:05:17;5.20;99.90
5675;DHT22;2860;54.284;10.158;2023-02-13T05:07:43;5.30;99.90
5675;DHT22;2860;54.284;10.158;2023-02-13T05:10:10;5.30;99.90
5675;DHT22;2860;54.284;10.158;2023-02-13T05:12:35;5.20;99.90
5675;DHT22;2860;54.284;10.158;2023-02-13T05:15:01;5.30;99.90
5675;DHT22;2860;54.284;10.158;2023-02-13T05:17:27;5.30;99.90
5675;DHT22;2860;54.284;10.158;2023-02-13T05:19:52;5.30;99.90
5675;DHT22;2860;54.284;10.158;2023-02-13T05:22:18;5.30;99.90
5675;DHT22;2860;54.284;10.158;2023-02-13T05:25:02;5.30;99.90
5675;DHT22;2860;54.284;10.158;2023-02-13T05:27:27;5.30;99.90
5675;DHT22;2860;54.284;10.158;2023-02-13T05:29:53;5.30;99.90
5675;DHT22;2860;54.284;10.158;2023-02-13T05:32:18;5.20;99.90
5675;DHT22;2860;54.284;10.158;2023-02-13T05:34:44;5.20;99.90
5675;DHT22;2860;54.284;10.158;2023-02-13T05:37:10;5.20;99.90
5675;DHT22;2860;54.284;10.158;2023-02-13T05:39:35;5.30;99.90
5675;DHT22;2860;54.284;10.158;2023-02-13T05:42:00;5.30;99.90
5675;DHT22;2860;54.284;10.158;2023-02-13T05:44:29;5.30;99.90
5675;DHT22;2860;54.284;10.158;2023-02-13T05:46:54;5.20;99.90
5675;DHT22;2860;54.284;10.158;2023-02-13T05:49:20;5.20;99.90
5675;DHT22;2860;54.284;10.158;2023-02-13T05:51:47;5.20;99.90
5675;DHT22;2860;54.284;10.158;2023-02-13T05:54:12;5.30;99.90
5675;DHT22;2860;54.284;10.158;2023-02-13T05:56:38;5.30;99.90
5675;DHT22;2860;54.284;10.158;2023-02-13T05:59:04;5.30;99.90
5675;DHT22;2860;54.284;10.158;2023-02-13T06:01:29;5.30;99.90
5675;DHT22;2860;54.284;10.158;2023-02-13T06:03:55;5.30;99.90
5675;DHT22;2860;54.284;10.158;2023-02-13T06:06:20;5.30;99.90
5675;DHT22;2860;54.284;10.158;2023-02-13T06:08:47;5.20;99.90
5675;DHT22;2860;54.284;10.158;2023-02-13T06:11:12;5.20;99.90
5675;DHT22;2860;54.284;10.158;2023-02-13T06:13:38;5.20;99.90
5675;DHT22;2860;54.284;10.158;2023-02-13T06:16:07;5.30;99.90
5675;DHT22;2860;54.284;10.158;2023-02-13T06:18:33;5.20;99.90
5675;DHT22;2860;54.284;10.158;2023-02-13T06:20:59;5.30;99.90
5675;DHT22;2860;54.284;10.158;2023-02-13T06:23:25;5.30;99.90
5675;DHT22;2860;54.284;10.158;2023-02-13T06:25:51;5.20;99.90
5675;DHT22;2860;54.284;10.158;2023-02-13T06:28:16;5.30;99.90
5675;DHT22;2860;54.284;10.158;2023-02-13T06:30:42;5.30;99.90
5675;DHT22;2860;54.284;10.158;2023-02-13T06:33:07;5.30;99.90
5675;DHT22;2860;54.284;10.158;2023-02-13T06:35:33;5.20;99.90
5675;DHT22;2860;54.284;10.158;2023-02-13T06:37:58;5.20;99.90
5675;DHT22;2860;54.284;10.158;2023-02-13T06:40:24;5.20;99.90
5675;DHT22;2860;54.284;10.158;2023-02-13T06:42:49;5.20;99.90
5675;DHT22;2860;54.284;10.158;2023-02-13T06:45:15;5.20;99.90
5675;DHT22;2860;54.284;10.158;2023-02-13T06:47:46;5.20;99.90
5675;DHT22;2860;54.284;10.158;2023-02-13T06:50:12;5.20;99.90
5675;DHT22;2860;54.284;10.158;2023-02-13T06:52:39;5.20;99.90
5675;DHT22;2860;54.284;10.158;2023-02-13T06:55:09;5.20;99.90
5675;DHT22;2860;54.284;10.158;2023-02-13T06:57:34;5.20;99.90
5675;DHT22;2860;54.284;10.158;2023-02-13T07:00:00;5.20;99.90
5675;DHT22;2860;54.284;10.158;2023-02-13T07:02:30;5.20;99.90
5675;DHT22;2860;54.284;10.158;2023-02-13T07:04:56;5.20;99.90
5675;DHT22;2860;54.284;10.158;2023-02-13T07:07:21;5.20;99.90
5675;DHT22;2860;54.284;10.158;2023-02-13T07:09:47;5.20;99.90
5675;DHT22;2860;54.284;10.158;2023-02-13T07:12:12;5.20;99.90
5675;DHT22;2860;54.284;10.158;2023-02-13T07:14:38;5.30;99.90
5675;DHT22;2860;54.284;10.158;2023-02-13T07:17:03;5.30;99.90
5675;DHT22;2860;54.284;10.158;2023-02-13T07:19:30;5.30;99.90
5675;DHT22;2860;54.284;10.158;2023-02-13T07:21:56;5.20;99.90
5675;DHT22;2860;54.284;10.158;2023-02-13T07:24:21;5.30;99.90
5675;DHT22;2860;54.284;10.158;2023-02-13T07:26:46;5.30;99.90
5675;DHT22;2860;54.284;10.158;2023-02-13T07:29:12;5.30;99.90
5675;DHT22;2860;54.284;10.158;2023-02-13T07:31:38;5.30;99.90
5675;DHT22;2860;54.284;10.158;2023-02-13T07:34:04;5.30;99.90
5675;DHT22;2860;54.284;10.158;2023-02-13T07:36:29;5.30;99.90
5675;DHT22;2860;54.284;10.158;2023-02-13T07:38:55;5.40;99.90
5675;DHT22;2860;54.284;10.158;2023-02-13T07:41:20;5.30;99.90
5675;DHT22;2860;54.284;10.158;2023-02-13T07:43:46;5.40;99.90
5675;DHT22;2860;54.284;10.158;2023-02-13T07:46:11;5.40;99.90
5675;DHT22;2860;54.284;10.158;2023-02-13T07:48:37;5.40;99.90
5675;DHT22;2860;54.284;10.158;2023-02-13T07:51:04;5.40;99.90
5675;DHT22;2860;54.284;10.158;2023-02-13T07:53:30;5.40;99.90
5675;DHT22;2860;54.284;10.158;2023-02-13T07:55:56;5.40;99.90
5675;DHT22;2860;54.284;10.158;2023-02-13T07:58:22;5.40;99.90
5675;DHT22;2860;54.284;10.158;2023-02-13T08:00:47;5.40;99.90
5675;DHT22;2860;54.284;10.158;2023-02-13T08:03:13;5.50;99.90
5675;DHT22;2860;54.284;10.158;2023-02-13T08:05:38;5.50;99.90
5675;DHT22;2860;54.284;10.158;2023-02-13T08:08:05;5.50;99.90
5675;DHT22;2860;54.284;10.158;2023-02-13T08:10:31;5.50;99.90
5675;DHT22;2860;54.284;10.158;2023-02-13T08:13:15;5.50;99.90
5675;DHT22;2860;54.284;10.158;2023-02-13T08:15:41;5.60;99.90
5675;DHT22;2860;54.284;10.158;2023-02-13T08:18:09;5.60;99.90
5675;DHT22;2860;54.284;10.158;2023-02-13T08:20:34;5.60;99.90
5675;DHT22;2860;54.284;10.158;2023-02-13T08:23:04;5.60;99.90
5675;DHT22;2860;54.284;10.158;2023-02-13T08:25:30;5.70;99.90
5675;DHT22;2860;54.284;10.158;2023-02-13T08:27:55;5.70;99.90
5675;DHT22;2860;54.284;10.158;2023-02-13T08:30:21;5.70;99.90
5675;DHT22;2860;54.284;10.158;2023-02-13T08:32:46;5.70;99.90
5675;DHT22;2860;54.284;10.158;2023-02-13T08:35:12;5.70;99.90
5675;DHT22;2860;54.284;10.158;2023-02-13T08:37:37;5.70;99.90
5675;DHT22;2860;54.284;10.158;2023-02-13T08:40:03;5.70;99.90
5675;DHT22;2860;54.284;10.158;2023-02-13T08:42:29;5.80;99.90
5675;DHT22;2860;54.284;10.158;2023-02-13T08:44:54;5.90;99.90
5675;DHT22;2860;54.284;10.158;2023-02-13T08:47:20;5.80;99.90
5675;DHT22;2860;54.284;10.158;2023-02-13T08:49:45;5.90;99.90
5675;DHT22;2860;54.284;10.158;2023-02-13T08:52:11;5.90;99.90
5675;DHT22;2860;54.284;10.158;2023-02-13T08:54:36;5.90;99.90
5675;DHT22;2860;54.284;10.158;2023-02-13T08:57:02;6.00;99.90
5675;DHT22;2860;54.284;10.158;2023-02-13T08:59:28;6.00;99.90
5675;DHT22;2860;54.284;10.158;2023-02-13T09:01:54;6.00;99.90
5675;DHT22;2860;54.284;10.158;2023-02-13T09:04:19;6.00;99.90
5675;DHT22;2860;54.284;10.158;2023-02-13T09:06:45;6.00;99.90
5675;DHT22;2860;54.284;10.158;2023-02-13T09:09:10;6.10;99.90
5675;DHT22;2860;54.284;10.158;2023-02-13T09:11:36;6.10;99.90
5675;DHT22;2860;54.284;10.158;2023-02-13T09:14:02;6.10;99.90
5675;DHT22;2860;54.284;10.158;2023-02-13T09:16:27;6.10;99.90
5675;DHT22;2860;54.284;10.158;2023-02-13T09:18:53;6.10;99.90
5675;DHT22;2860;54.284;10.158;2023-02-13T09:21:20;6.10;99.90
5675;DHT22;2860;54.284;10.158;2023-02-13T09:23:48;6.20;99.90
5675;DHT22;2860;54.284;10.158;2023-02-13T09:26:15;6.20;99.90
5675;DHT22;2860;54.284;10.158;2023-02-13T09:28:41;6.20;99.90
5675;DHT22;2860;54.284;10.158;2023-02-13T09:31:08;6.30;99.90
5675;DHT22;2860;54.284;10.158;2023-02-13T09:33:34;6.30;99.90
5675;DHT22;2860;54.284;10.158;2023-02-13T09:36:20;6.30;99.90
5675;DHT22;2860;54.284;10.158;2023-02-13T09:38:54;6.30;99.90
5675;DHT22;2860;54.284;10.158;2023-02-13T09:43:59;6.40;99.90
5675;DHT22;2860;54.284;10.158;2023-02-13T09:46:29;6.50;99.90
5675;DHT22;2860;54.284;10.158;2023-02-13T09:48:59;6.50;99.90
5675;DHT22;2860;54.284;10.158;2023-02-13T09:51:26;6.50;99.90
5675;DHT22;2860;54.284;10.158;2023-02-13T09:53:55;6.50;99.90
5675;DHT22;2860;54.284;10.158;2023-02-13T09:59:24;6.50;99.90
5675;DHT22;2860;54.284;10.158;2023-02-13T10:01:55;6.60;99.90
5675;DHT22;2860;54.284;10.158;2023-02-13T10:05:04;6.70;99.90
5675;DHT22;2860;54.284;10.158;2023-02-13T10:10:32;6.70;99.90
5675;DHT22;2860;54.284;10.158;2023-02-13T10:13:26;6.80;99.90
5675;DHT22;2860;54.284;10.158;2023-02-13T10:21:10;6.90;99.90
5675;DHT22;2860;54.284;10.158;2023-02-13T10:23:45;6.90;99.90
5675;DHT22;2860;54.284;10.158;2023-02-13T10:26:19;6.80;99.90
5675;DHT22;2860;54.284;10.158;2023-02-13T10:28:57;6.80;99.90
5675;DHT22;2860;54.284;10.158;2023-02-13T10:32:02;6.90;99.90
5675;DHT22;2860;54.284;10.158;2023-02-13T10:34:35;6.90;99.90
5675;DHT22;2860;54.284;10.158;2023-02-13T10:37:03;6.90;99.90
5675;DHT22;2860;54.284;10.158;2023-02-13T10:39:33;7.00;99.90
5675;DHT22;2860;54.284;10.158;2023-02-13T10:44:57;7.00;99.90
5675;DHT22;2860;54.284;10.158;2023-02-13T10:55:48;7.10;99.90
5675;DHT22;2860;54.284;10.158;2023-02-13T10:58:21;7.10;99.90
5675;DHT22;2860;54.284;10.158;2023-02-13T11:03:23;7.10;99.90
5675;DHT22;2860;54.284;10.158;2023-02-13T11:05:51;7.20;99.90
5675;DHT22;2860;54.284;10.158;2023-02-13T11:08:23;7.20;99.90
5675;DHT22;2860;54.284;10.158;2023-02-13T11:10:50;7.20;99.90
5675;DHT22;2860;54.284;10.158;2023-02-13T11:13:19;7.30;99.90
5675;DHT22;2860;54.284;10.158;2023-02-13T11:16:07;7.30;99.90
5675;DHT22;2860;54.284;10.158;2023-02-13T11:18:38;7.30;99.90
5675;DHT22;2860;54.284;10.158;2023-02-13T11:21:10;7.30;99.90
5675;DHT22;2860;54.284;10.158;2023-02-13T11:23:58;7.30;99.90
5675;DHT22;2860;54.284;10.158;2023-02-13T11:26:37;7.30;99.90
5675;DHT22;2860;54.284;10.158;2023-02-13T11:29:19;7.30;99.90
5675;DHT22;2860;54.284;10.158;2023-02-13T11:31:59;7.30;99.90
5675;DHT22;2860;54.284;10.158;2023-02-13T11:34:28;7.30;99.90
5675;DHT22;2860;54.284;10.158;2023-02-13T11:37:14;7.30;99.90
5675;DHT22;2860;54.284;10.158;2023-02-13T11:39:41;7.30;99.90
5675;DHT22;2860;54.284;10.158;2023-02-13T11:42:40;7.20;99.90
5675;DHT22;2860;54.284;10.158;2023-02-13T11:45:19;7.30;99.90
5675;DHT22;2860;54.284;10.158;2023-02-13T11:47:45;7.30;99.90
5675;DHT22;2860;54.284;10.158;2023-02-13T11:50:35;7.40;99.90
5675;DHT22;2860;54.284;10.158;2023-02-13T11:53:04;7.40;99.90
5675;DHT22;2860;54.284;10.158;2023-02-13T11:55:38;7.50;99.90
5675;DHT22;2860;54.284;10.158;2023-02-13T12:00:38;7.60;99.90
5675;DHT22;2860;54.284;10.158;2023-02-13T12:03:26;7.60;99.90
5675;DHT22;2860;54.284;10.158;2023-02-13T12:08:38;7.60;99.90
5675;DHT22;2860;54.284;10.158;2023-02-13T12:11:22;7.60;99.90
5675;DHT22;2860;54.284;10.158;2023-02-13T12:13:50;7.60;99.90
5675;DHT22;2860;54.284;10.158;2023-02-13T12:18:59;7.50;99.90
5675;DHT22;2860;54.284;10.158;2023-02-13T12:21:51;7.50;99.90
5675;DHT22;2860;54.284;10.158;2023-02-13T12:24:24;7.50;99.90
5675;DHT22;2860;54.284;10.158;2023-02-13T12:35:13;7.40;99.90
5675;DHT22;2860;54.284;10.158;2023-02-13T12:40:34;7.40;99.90
5675;DHT22;2860;54.284;10.158;2023-02-13T12:46:21;7.30;99.90
5675;DHT22;2860;54.284;10.158;2023-02-13T12:54:17;7.30;99.90
5675;DHT22;2860;54.284;10.158;2023-02-13T12:57:14;7.40;99.90
5675;DHT22;2860;54.284;10.158;2023-02-13T13:00:11;7.30;99.90
5675;DHT22;2860;54.284;10.158;2023-02-13T13:05:44;7.30;99.90
5675;DHT22;2860;54.284;10.158;2023-02-13T13:13:53;7.30;99.90
5675;DHT22;2860;54.284;10.158;2023-02-13T13:27:22;7.20;99.90
5675;DHT22;2860;54.284;10.158;2023-02-13T13:32:42;7.30;99.90
5675;DHT22;2860;54.284;10.158;2023-02-13T13:35:13;7.30;99.90
5675;DHT22;2860;54.284;10.158;2023-02-13T13:47:01;7.20;99.90
5675;DHT22;2860;54.284;10.158;2023-02-13T13:49:56;7.20;99.90
5675;DHT22;2860;54.284;10.158;2023-02-13T13:52:29;7.20;99.90
5675;DHT22;2860;54.284;10.158;2023-02-13T13:54:56;7.20;99.90
5675;DHT22;2860;54.284;10.158;2023-02-13T14:05:29;7.10;99.90
5675;DHT22;2860;54.284;10.158;2023-02-13T14:07:58;7.10;99.90
5675;DHT22;2860;54.284;10.158;2023-02-13T14:12:59;7.00;99.90
5675;DHT22;2860;54.284;10.158;2023-02-13T14:17:59;7.00;99.90
5675;DHT22;2860;54.284;10.158;2023-02-13T14:20:42;7.00;99.90
5675;DHT22;2860;54.284;10.158;2023-02-13T14:33:59;7.00;99.90
5675;DHT22;2860;54.284;10.158;2023-02-13T14:36:44;7.00;99.90
5675;DHT22;2860;54.284;10.158;2023-02-13T14:39:49;7.00;99.90
5675;DHT22;2860;54.284;10.158;2023-02-13T14:42:39;7.00;99.90
5675;DHT22;2860;54.284;10.158;2023-02-13T14:45:16;6.90;99.90
5675;DHT22;2860;54.284;10.158;2023-02-13T14:47:54;7.00;99.90
5675;DHT22;2860;54.284;10.158;2023-02-13T14:50:28;7.00;99.90
5675;DHT22;2860;54.284;10.158;2023-02-13T14:52:56;6.90;99.90
5675;DHT22;2860;54.284;10.158;2023-02-13T14:55:40;6.90;99.90
5675;DHT22;2860;54.284;10.158;2023-02-13T14:58:14;6.90;99.90
5675;DHT22;2860;54.284;10.158;2023-02-13T15:00:45;6.90;99.90
5675;DHT22;2860;54.284;10.158;2023-02-13T15:05:58;6.80;99.90
5675;DHT22;2860;54.284;10.158;2023-02-13T15:08:27;6.70;99.90
5675;DHT22;2860;54.284;10.158;2023-02-13T15:10:55;6.70;99.90
5675;DHT22;2860;54.284;10.158;2023-02-13T15:15:52;6.70;99.90
5675;DHT22;2860;54.284;10.158;2023-02-13T15:18:24;6.60;99.90
5675;DHT22;2860;54.284;10.158;2023-02-13T15:20:54;6.60;99.90
5675;DHT22;2860;54.284;10.158;2023-02-13T15:23:26;6.70;99.90
5675;DHT22;2860;54.284;10.158;2023-02-13T15:26:00;6.60;99.90
5675;DHT22;2860;54.284;10.158;2023-02-13T15:28:27;6.60;99.90
5675;DHT22;2860;54.284;10.158;2023-02-13T15:30:58;6.50;99.90
5675;DHT22;2860;54.284;10.158;2023-02-13T15:33:31;6.60;99.90
5675;DHT22;2860;54.284;10.158;2023-02-13T15:36:00;6.60;99.90
5675;DHT22;2860;54.284;10.158;2023-02-13T15:41:00;6.50;99.90
5675;DHT22;2860;54.284;10.158;2023-02-13T15:43:32;6.40;99.90
5675;DHT22;2860;54.284;10.158;2023-02-13T15:46:02;6.50;99.90
5675;DHT22;2860;54.284;10.158;2023-02-13T15:48:31;6.40;99.90
5675;DHT22;2860;54.284;10.158;2023-02-13T15:50:58;6.30;99.90
5675;DHT22;2860;54.284;10.158;2023-02-13T15:53:23;6.30;99.90
5675;DHT22;2860;54.284;10.158;2023-02-13T15:55:58;6.20;99.90
5675;DHT22;2860;54.284;10.158;2023-02-13T15:58:28;6.20;99.90
5675;DHT22;2860;54.284;10.158;2023-02-13T16:00:55;6.20;99.90
5675;DHT22;2860;54.284;10.158;2023-02-13T16:03:24;6.20;99.90
5675;DHT22;2860;54.284;10.158;2023-02-13T16:05:51;6.20;99.90
5675;DHT22;2860;54.284;10.158;2023-02-13T16:11:25;6.10;99.90
5675;DHT22;2860;54.284;10.158;2023-02-13T16:16:27;6.10;99.90
5675;DHT22;2860;54.284;10.158;2023-02-13T16:18:53;6.10;99.90
5675;DHT22;2860;54.284;10.158;2023-02-13T16:21:23;6.10;99.90
5675;DHT22;2860;54.284;10.158;2023-02-13T16:23:57;6.10;99.90
5675;DHT22;2860;54.284;10.158;2023-02-13T16:26:23;6.00;99.90
5675;DHT22;2860;54.284;10.158;2023-02-13T16:28:49;6.00;99.90
5675;DHT22;2860;54.284;10.158;2023-02-13T16:31:15;6.00;99.90
5675;DHT22;2860;54.284;10.158;2023-02-13T16:33:43;6.00;99.90
5675;DHT22;2860;54.284;10.158;2023-02-13T16:38:36;5.90;99.90
5675;DHT22;2860;54.284;10.158;2023-02-13T16:41:07;5.90;99.90
5675;DHT22;2860;54.284;10.158;2023-02-13T16:43:52;5.90;99.90
5675;DHT22;2860;54.284;10.158;2023-02-13T16:51:43;5.90;99.90
5675;DHT22;2860;54.284;10.158;2023-02-13T16:56:46;5.80;99.90
5675;DHT22;2860;54.284;10.158;2023-02-13T17:04:35;5.90;99.90
5675;DHT22;2860;54.284;10.158;2023-02-13T17:07:04;5.80;99.90
5675;DHT22;2860;54.284;10.158;2023-02-13T17:09:30;5.80;99.90
5675;DHT22;2860;54.284;10.158;2023-02-13T17:11:55;5.80;99.90
5675;DHT22;2860;54.284;10.158;2023-02-13T17:14:21;5.80;99.90
5675;DHT22;2860;54.284;10.158;2023-02-13T17:16:47;5.80;99.90
5675;DHT22;2860;54.284;10.158;2023-02-13T17:19:12;5.70;99.90
5675;DHT22;2860;54.284;10.158;2023-02-13T17:21:38;5.70;99.90
5675;DHT22;2860;54.284;10.158;2023-02-13T17:24:05;5.80;99.90
5675;DHT22;2860;54.284;10.158;2023-02-13T17:26:31;5.70;99.90
5675;DHT22;2860;54.284;10.158;2023-02-13T17:28:56;5.70;99.90
5675;DHT22;2860;54.284;10.158;2023-02-13T17:31:22;5.70;99.90
5675;DHT22;2860;54.284;10.158;2023-02-13T17:33:47;5.70;99.90
5675;DHT22;2860;54.284;10.158;2023-02-13T17:36:13;5.60;99.90
5675;DHT22;2860;54.284;10.158;2023-02-13T17:38:39;5.60;99.90
5675;DHT22;2860;54.284;10.158;2023-02-13T17:41:05;5.60;99.90
5675;DHT22;2860;54.284;10.158;2023-02-13T17:43:35;5.60;99.90
5675;DHT22;2860;54.284;10.158;2023-02-13T17:46:01;5.60;99.90
5675;DHT22;2860;54.284;10.158;2023-02-13T17:48:26;5.60;99.90
5675;DHT22;2860;54.284;10.158;2023-02-13T17:50:52;5.60;99.90
5675;DHT22;2860;54.284;10.158;2023-02-13T17:53:28;5.60;99.90
5675;DHT22;2860;54.284;10.158;2023-02-13T17:55:57;5.50;99.90
5675;DHT22;2860;54.284;10.158;2023-02-13T17:58:23;5.60;99.90
5675;DHT22;2860;54.284;10.158;2023-02-13T18:00:49;5.50;99.90
5675;DHT22;2860;54.284;10.158;2023-02-13T18:03:15;5.50;99.90
5675;DHT22;2860;54.284;10.158;2023-02-13T18:05:40;5.50;99.90
5675;DHT22;2860;54.284;10.158;2023-02-13T18:08:06;5.50;99.90
5675;DHT22;2860;54.284;10.158;2023-02-13T18:10:34;5.50;99.90
5675;DHT22;2860;54.284;10.158;2023-02-13T18:13:00;5.50;99.90
5675;DHT22;2860;54.284;10.158;2023-02-13T18:15:30;5.50;99.90
5675;DHT22;2860;54.284;10.158;2023-02-13T18:17:56;5.50;99.90
5675;DHT22;2860;54.284;10.158;2023-02-13T18:20:21;5.50;99.90
5675;DHT22;2860;54.284;10.158;2023-02-13T18:22:48;5.50;99.90
5675;DHT22;2860;54.284;10.158;2023-02-13T18:25:15;5.50;99.90
5675;DHT22;2860;54.284;10.158;2023-02-13T18:27:41;5.40;99.90
5675;DHT22;2860;54.284;10.158;2023-02-13T18:30:08;5.40;99.90
5675;DHT22;2860;54.284;10.158;2023-02-13T18:32:34;5.50;99.90
5675;DHT22;2860;54.284;10.158;2023-02-13T18:34:59;5.40;99.90
5675;DHT22;2860;54.284;10.158;2023-02-13T18:37:25;5.40;99.90
5675;DHT22;2860;54.284;10.158;2023-02-13T18:39:53;5.50;99.90
5675;DHT22;2860;54.284;10.158;2023-02-13T18:42:19;5.50;99.90
5675;DHT22;2860;54.284;10.158;2023-02-13T18:44:44;5.40;99.90
5675;DHT22;2860;54.284;10.158;2023-02-13T18:47:10;5.40;99.90
5675;DHT22;2860;54.284;10.158;2023-02-13T18:49:36;5.40;99.90
5675;DHT22;2860;54.284;10.158;2023-02-13T18:52:01;5.30;99.90
5675;DHT22;2860;54.284;10.158;2023-02-13T18:54:27;5.40;99.90
5675;DHT22;2860;54.284;10.158;2023-02-13T18:56:53;5.40;99.90
5675;DHT22;2860;54.284;10.158;2023-02-13T18:59:18;5.40;99.90
5675;DHT22;2860;54.284;10.158;2023-02-13T19:01:44;5.40;99.90
5675;DHT22;2860;54.284;10.158;2023-02-13T19:04:10;5.40;99.90
5675;DHT22;2860;54.284;10.158;2023-02-13T19:06:41;5.40;99.90
5675;DHT22;2860;54.284;10.158;2023-02-13T19:09:07;5.40;99.90